createdAt,value
2019-01-03T00:04:11.054Z,102813.70
2019-01-03T00:09:34.141Z,102803.73
2019-01-03T00:14:57.758Z,102809.47
2019-01-03T00:20:21.223Z,102808.63
2019-01-03T00:25:38.133Z,102814.13
2019-01-03T00:30:43.196Z,102815.58
2019-01-03T00:36:04.666Z,102834.46
2019-01-03T00:41:09.735Z,102843.94
2019-01-03T00:46:14.885Z,102857.00
2019-01-03T00:51:36.040Z,102864.73
2019-01-03T00:56:41.115Z,102869.48
2019-01-03T01:01:58.152Z,102866.80
2019-01-03T01:07:19.688Z,102875.77
2019-01-03T01:12:24.829Z,102870.42
2019-01-03T01:17:46.017Z,102864.16
2019-01-03T01:23:06.987Z,102869.63
2019-01-03T01:28:23.840Z,102879.42
2019-01-03T01:33:31.699Z,102871.91
2019-01-03T01:38:42.740Z,102873.51
2019-01-03T01:44:03.958Z,102868.85
2019-01-03T01:49:11.754Z,102875.28
2019-01-03T01:54:22.547Z,102872.94
2019-01-03T01:59:30.043Z,102872.06
2019-01-03T02:04:37.896Z,102882.91
2019-01-03T02:09:58.309Z,102874.77
2019-01-03T02:15:09.222Z,102884.48
2019-01-03T02:20:14.362Z,102869.05
2019-01-03T02:25:21.854Z,102871.88
2019-01-03T02:30:32.765Z,102861.79
2019-01-03T02:35:37.842Z,102849.02
2019-01-03T02:40:48.829Z,102845.84
2019-01-03T02:45:54.581Z,102844.55
2019-01-03T02:51:16.203Z,102853.03
2019-01-03T02:56:37.168Z,102854.97
2019-01-03T03:07:13.849Z,102865.90
2019-01-03T03:12:33.943Z,102864.00
2019-01-03T03:17:50.703Z,102863.88
2019-01-03T03:22:55.787Z,102860.18
2019-01-03T03:28:12.898Z,102863.88
2019-01-03T03:33:32.981Z,102861.39
2019-01-03T03:38:38.065Z,102855.72
2019-01-03T03:44:01.164Z,102867.78
2019-01-03T03:49:22.531Z,102853.14
2019-01-03T03:54:36.325Z,102832.36
2019-01-03T03:59:57.743Z,102822.87
2019-01-03T04:05:14.864Z,102830.27
2019-01-03T04:10:20.001Z,102830.47
2019-01-03T04:15:30.674Z,102823.95
2019-01-03T04:20:35.737Z,102826.20
2019-01-03T04:25:43.516Z,102829.85
2019-01-03T04:30:57.616Z,102822.37
2019-01-03T04:36:05.103Z,102831.16
2019-01-03T04:41:13.462Z,102826.50
2019-01-03T04:46:18.635Z,102822.08
2019-01-03T04:51:32.730Z,102820.67
2019-01-03T04:56:49.659Z,102819.39
2019-01-03T05:07:23.013Z,102819.45
2019-01-03T05:12:34.166Z,102820.49
2019-01-03T05:17:55.248Z,102811.08
2019-01-03T05:23:12.074Z,102815.75
2019-01-03T05:28:17.206Z,102815.94
2019-01-03T05:33:25.130Z,102813.59
2019-01-03T05:38:39.270Z,102812.63
2019-01-03T05:43:50.441Z,102820.43
2019-01-03T05:49:01.255Z,102819.73
2019-01-03T05:54:15.864Z,102818.66
2019-01-03T05:59:37.301Z,102828.16
2019-01-03T06:04:45.392Z,102821.72
2019-01-03T06:10:05.521Z,102835.48
2019-01-03T06:15:16.733Z,102834.78
2019-01-03T06:20:27.695Z,102827.75
2019-01-03T06:25:49.040Z,102826.09
2019-01-03T06:30:54.143Z,102827.67
2019-01-03T06:36:05.110Z,102819.55
2019-01-03T06:41:28.576Z,102827.75
2019-01-03T06:52:34.309Z,102826.87
2019-01-03T07:03:33.092Z,102830.73
2019-01-03T07:08:56.086Z,102836.53
2019-01-03T07:14:20.178Z,102842.38
2019-01-03T07:19:58.781Z,102858.94
2019-01-03T07:25:17.398Z,102862.43
2019-01-03T07:30:31.649Z,102861.41
2019-01-03T07:36:15.616Z,102877.42
2019-01-03T07:41:43.746Z,102870.84
2019-01-03T07:46:59.298Z,102877.77
2019-01-03T07:53:03.193Z,102872.33
2019-01-03T08:04:00.676Z,102886.32
2019-01-03T08:09:16.856Z,102893.67
2019-01-03T08:20:10.593Z,102897.89
2019-01-03T08:25:24.480Z,102891.52
2019-01-03T08:30:32.308Z,102895.25
2019-01-03T08:35:49.172Z,102891.08
2019-01-03T08:41:03.438Z,102894.60
2019-01-03T08:46:26.298Z,102905.09
2019-01-03T08:51:47.796Z,102906.88
2019-01-03T08:56:58.845Z,102908.09
2019-01-03T09:02:15.708Z,102915.41
2019-01-03T09:07:20.782Z,102922.81
2019-01-03T09:12:43.905Z,102924.77
2019-01-03T09:17:49.357Z,102918.89
2019-01-03T09:23:10.593Z,102922.54
2019-01-03T09:28:24.689Z,102924.79
2019-01-03T09:33:32.381Z,102936.43
2019-01-03T09:38:41.528Z,102938.54
2019-01-03T09:43:46.579Z,102931.63
2019-01-03T09:48:50.021Z,102926.87
2019-01-03T09:53:53.457Z,102916.16
2019-01-03T09:58:56.884Z,102903.84
2019-01-03T10:04:00.330Z,102906.02
2019-01-03T10:09:05.631Z,102898.28
2019-01-03T10:14:10.056Z,102903.29
2019-01-03T10:19:13.500Z,102912.24
2019-01-03T10:24:16.909Z,102918.69
2019-01-03T10:29:20.339Z,102918.98
2019-01-03T10:34:23.832Z,102910.22
2019-01-03T10:39:27.227Z,102900.86
2019-01-03T10:44:30.651Z,102891.94
2019-01-03T10:49:34.065Z,102882.18
2019-01-03T10:54:38.468Z,102875.49
2019-01-03T10:59:41.982Z,102875.31
2019-01-03T11:04:45.426Z,102872.81
2019-01-03T11:09:48.879Z,102879.17
2019-01-03T11:14:52.315Z,102878.63
2019-01-03T11:19:55.778Z,102868.44
2019-01-03T11:24:59.219Z,102864.09
2019-01-03T11:30:02.697Z,102864.47
2019-01-03T11:35:07.115Z,102875.68
2019-01-03T11:40:10.545Z,102869.88
2019-01-03T11:45:13.963Z,102857.42
2019-01-03T11:50:17.397Z,102870.60
2019-01-03T11:55:20.836Z,102873.25
2019-01-03T12:00:24.282Z,102870.26
2019-01-03T12:05:27.719Z,102868.73
2019-01-03T12:10:31.142Z,102866.19
2019-01-03T12:15:34.559Z,102840.95
2019-01-03T12:20:38.013Z,102830.69
2019-01-03T12:25:41.447Z,102827.16
2019-01-03T12:30:44.884Z,102834.45
2019-01-03T12:35:48.313Z,102835.59
2019-01-03T12:40:51.803Z,102854.83
2019-01-03T12:45:55.229Z,102848.84
2019-01-03T12:50:58.694Z,102855.53
2019-01-03T12:56:02.111Z,102861.05
2019-01-03T13:01:05.565Z,102854.47
2019-01-03T13:06:09.003Z,102839.66
2019-01-03T13:11:12.494Z,102826.58
2019-01-03T13:16:15.914Z,102834.98
2019-01-03T13:21:19.356Z,102833.58
2019-01-03T13:26:22.796Z,102835.22
2019-01-03T13:31:26.223Z,102836.05
2019-01-03T13:36:29.661Z,102844.98
2019-01-03T13:41:33.098Z,102847.10
2019-01-03T13:46:36.525Z,102845.80
2019-01-03T13:51:39.972Z,102841.62
2019-01-03T13:56:43.406Z,102851.66
2019-01-03T14:01:46.830Z,102857.82
2019-01-03T14:06:50.261Z,102851.41
2019-01-03T14:11:53.686Z,102855.11
2019-01-03T14:16:57.113Z,102851.53
2019-01-03T14:22:00.539Z,102855.17
2019-01-03T14:27:03.975Z,102853.64
2019-01-03T14:32:07.411Z,102860.06
2019-01-03T14:37:10.844Z,102862.41
2019-01-03T14:42:14.278Z,102868.92
2019-01-03T14:47:17.718Z,102868.28
2019-01-03T14:52:21.150Z,102874.09
2019-01-03T14:57:24.577Z,102874.80
2019-01-03T15:02:28.641Z,102879.61
2019-01-03T15:07:32.143Z,102881.37
2019-01-03T15:12:35.643Z,102881.13
2019-01-03T15:17:39.078Z,102874.74
2019-01-03T15:22:42.508Z,102876.03
2019-01-03T15:27:45.960Z,102871.55
2019-01-03T15:32:49.471Z,102867.92
2019-01-03T15:37:52.882Z,102860.34
2019-01-03T15:42:56.351Z,102860.14
2019-01-03T15:47:59.825Z,102873.66
2019-01-03T15:53:03.272Z,102885.55
2019-01-03T15:58:06.725Z,102885.95
2019-01-03T16:03:10.216Z,102896.72
2019-01-03T16:08:13.640Z,102902.69
2019-01-03T16:13:17.057Z,102900.30
2019-01-03T16:18:20.483Z,102904.73
2019-01-03T16:23:23.912Z,102909.32
2019-01-03T16:28:27.340Z,102922.78
2019-01-03T16:33:30.752Z,102920.06
2019-01-03T16:38:34.191Z,102928.13
2019-01-03T16:43:37.656Z,102939.31
2019-01-03T16:48:41.084Z,102936.74
2019-01-03T16:53:44.525Z,102940.05
2019-01-03T16:58:47.967Z,102942.23
2019-01-03T17:03:51.407Z,102945.55
2019-01-03T17:08:54.839Z,102940.05
2019-01-03T17:13:58.254Z,102930.04
2019-01-03T17:19:01.694Z,102925.77
2019-01-03T17:24:05.120Z,102937.59
2019-01-03T17:29:08.579Z,102934.39
2019-01-03T17:34:12.211Z,102928.48
2019-01-03T17:39:15.602Z,102930.95
2019-01-03T17:44:19.076Z,102931.00
2019-01-03T17:49:22.509Z,102931.06
2019-01-03T17:54:25.926Z,102934.23
2019-01-03T17:59:29.370Z,102924.11
2019-01-03T18:04:32.802Z,102941.30
2019-01-03T18:09:36.219Z,102940.38
2019-01-03T18:14:39.653Z,102944.85
2019-01-03T18:19:43.099Z,102940.59
2019-01-03T18:24:46.518Z,102937.89
2019-01-03T18:29:49.978Z,102937.53
2019-01-03T18:34:53.410Z,102942.32
2019-01-03T18:39:57.109Z,102934.16
2019-01-03T18:45:00.633Z,102931.55
2019-01-03T18:50:04.148Z,102935.92
2019-01-03T18:55:09.162Z,102935.03
2019-01-03T19:00:13.712Z,102943.16
2019-01-03T19:05:17.238Z,102942.67
2019-01-03T19:10:28.233Z,102940.42
2019-01-03T19:15:28.219Z,102936.67
2019-01-03T19:20:31.692Z,102949.98
2019-01-03T19:25:35.143Z,102943.39
2019-01-03T19:30:38.616Z,102956.53
2019-01-03T19:35:42.147Z,102942.59
2019-01-03T19:40:45.663Z,102952.94
2019-01-03T19:45:49.179Z,102946.81
2019-01-03T19:50:52.635Z,102947.91
2019-01-03T19:55:56.088Z,102949.70
2019-01-03T20:00:59.526Z,102960.71
2019-01-03T20:06:02.946Z,102972.31
2019-01-03T20:11:06.381Z,102970.68
2019-01-03T20:16:09.900Z,102970.49
2019-01-03T20:21:13.704Z,102966.86
2019-01-03T20:26:17.384Z,102971.40
2019-01-03T20:31:20.840Z,102967.18
2019-01-03T20:36:24.335Z,102977.46
2019-01-03T20:41:27.790Z,102964.20
2019-01-03T20:46:31.220Z,102971.27
2019-01-03T20:51:34.828Z,102970.19
2019-01-03T20:56:38.266Z,102978.98
2019-01-03T21:01:41.704Z,102980.92
2019-01-03T21:06:45.119Z,102988.51
2019-01-03T21:11:48.562Z,102986.35
2019-01-03T21:16:52.020Z,102982.60
2019-01-03T21:21:55.469Z,102986.58
2019-01-03T21:26:58.917Z,102995.84
2019-01-03T21:32:02.360Z,102998.82
2019-01-03T21:37:05.862Z,102995.66
2019-01-03T21:42:09.296Z,102986.86
2019-01-03T21:47:12.774Z,102987.47
2019-01-03T21:52:16.223Z,102986.25
2019-01-03T21:57:19.685Z,102983.51
2019-01-03T22:02:23.149Z,102980.80
2019-01-03T22:07:26.589Z,102988.23
2019-01-03T22:12:30.112Z,102976.47
2019-01-03T22:17:34.490Z,102968.67
2019-01-03T22:22:37.897Z,102964.84
2019-01-03T22:27:41.336Z,102960.99
2019-01-03T22:32:44.794Z,102957.55
2019-01-03T22:37:48.234Z,102947.88
2019-01-03T22:42:51.672Z,102951.14
2019-01-03T22:47:55.114Z,102949.63
2019-01-03T22:52:58.561Z,102942.02
2019-01-03T22:58:02.014Z,102931.33
2019-01-03T23:03:05.589Z,102932.72
2019-01-03T23:08:09.069Z,102944.56
2019-01-03T23:13:12.523Z,102942.02
2019-01-03T23:18:16.004Z,102945.62
2019-01-03T23:23:19.460Z,102951.13
2019-01-03T23:28:22.910Z,102952.23
2019-01-03T23:33:26.429Z,102958.06
2019-01-03T23:38:29.860Z,102953.20
2019-01-03T23:43:33.311Z,102950.75
2019-01-03T23:48:36.803Z,102941.84
2019-01-03T23:53:40.240Z,102933.23
2019-01-03T23:58:43.665Z,102943.42
